sensor_id;sensor_type;location;lat;lon;timestamp;temperature;humidity
13172;DHT22;6651;53.200;10.432;2024-03-23T00:52:09;7.90;99.90
13172;DHT22;6651;53.200;10.432;2024-03-23T00:54:35;7.90;99.90
13172;DHT22;6651;53.200;10.432;2024-03-23T00:57:01;7.90;99.90
13172;DHT22;6651;53.200;10.432;2024-03-23T00:59:26;7.90;99.90
13172;DHT22;6651;53.200;10.432;2024-03-23T01:01:54;7.90;99.90
13172;DHT22;6651;53.200;10.432;2024-03-23T01:04:20;7.90;99.90
13172;DHT22;6651;53.200;10.432;2024-03-23T01:06:46;7.90;99.90
13172;DHT22;6651;53.200;10.432;2024-03-23T01:09:12;7.90;99.90
13172;DHT22;6651;53.200;10.432;2024-03-23T01:11:39;7.90;99.90
13172;DHT22;6651;53.200;10.432;2024-03-23T01:14:05;7.90;99.90
13172;DHT22;6651;53.200;10.432;2024-03-23T01:16:31;7.80;99.90
13172;DHT22;6651;53.200;10.432;2024-03-23T01:18:57;7.90;99.90
13172;DHT22;6651;53.200;10.432;2024-03-23T01:21:23;7.80;99.90
13172;DHT22;6651;53.200;10.432;2024-03-23T01:23:48;7.80;99.90
13172;DHT22;6651;53.200;10.432;2024-03-23T01:26:14;7.90;99.90
13172;DHT22;6651;53.200;10.432;2024-03-23T01:28:40;7.90;99.90
13172;DHT22;6651;53.200;10.432;2024-03-23T01:31:05;7.80;99.90
13172;DHT22;6651;53.200;10.432;2024-03-23T01:33:31;7.80;99.90
13172;DHT22;6651;53.200;10.432;2024-03-23T01:35:57;7.70;99.90
13172;DHT22;6651;53.200;10.432;2024-03-23T01:38:22;7.70;99.90
13172;DHT22;6651;53.200;10.432;2024-03-23T01:40:48;7.70;99.90
13172;DHT22;6651;53.200;10.432;2024-03-23T01:43:14;7.70;99.90
13172;DHT22;6651;53.200;10.432;2024-03-23T01:45:39;7.60;99.90
13172;DHT22;6651;53.200;10.432;2024-03-23T01:48:05;7.60;99.90
13172;DHT22;6651;53.200;10.432;2024-03-23T01:50:31;7.60;99.90
13172;DHT22;6651;53.200;10.432;2024-03-23T01:53:02;7.60;99.90
13172;DHT22;6651;53.200;10.432;2024-03-23T01:55:28;7.60;99.90
13172;DHT22;6651;53.200;10.432;2024-03-23T01:57:56;7.50;99.90
13172;DHT22;6651;53.200;10.432;2024-03-23T02:00:22;7.50;99.90
13172;DHT22;6651;53.200;10.432;2024-03-23T02:02:48;7.50;99.90
13172;DHT22;6651;53.200;10.432;2024-03-23T02:05:14;7.50;99.90
13172;DHT22;6651;53.200;10.432;2024-03-23T02:07:40;7.50;99.90
13172;DHT22;6651;53.200;10.432;2024-03-23T02:10:07;7.50;99.90
13172;DHT22;6651;53.200;10.432;2024-03-23T02:12:33;7.50;99.90
13172;DHT22;6651;53.200;10.432;2024-03-23T02:15:00;7.50;99.90
13172;DHT22;6651;53.200;10.432;2024-03-23T02:17:25;7.60;99.90
13172;DHT22;6651;53.200;10.432;2024-03-23T02:19:51;7.50;99.90
13172;DHT22;6651;53.200;10.432;2024-03-23T02:22:17;7.40;99.90
13172;DHT22;6651;53.200;10.432;2024-03-23T02:24:42;7.40;99.90
13172;DHT22;6651;53.200;10.432;2024-03-23T02:27:08;7.40;99.90
13172;DHT22;6651;53.200;10.432;2024-03-23T02:29:34;7.40;99.90
13172;DHT22;6651;53.200;10.432;2024-03-23T02:32:00;7.40;99.90
13172;DHT22;6651;53.200;10.432;2024-03-23T02:34:25;7.30;99.90
13172;DHT22;6651;53.200;10.432;2024-03-23T02:36:51;7.30;99.90
13172;DHT22;6651;53.200;10.432;2024-03-23T02:39:16;7.30;99.90
13172;DHT22;6651;53.200;10.432;2024-03-23T02:41:42;7.40;99.90
13172;DHT22;6651;53.200;10.432;2024-03-23T02:44:07;7.30;99.90
13172;DHT22;6651;53.200;10.432;2024-03-23T02:46:37;7.30;99.90
13172;DHT22;6651;53.200;10.432;2024-03-23T02:49:03;7.30;99.90
13172;DHT22;6651;53.200;10.432;2024-03-23T02:51:30;7.30;99.90
13172;DHT22;6651;53.200;10.432;2024-03-23T02:53:55;7.30;99.90
13172;DHT22;6651;53.200;10.432;2024-03-23T02:56:21;7.30;99.90
13172;DHT22;6651;53.200;10.432;2024-03-23T02:58:47;7.20;99.90
13172;DHT22;6651;53.200;10.432;2024-03-23T03:01:13;7.20;99.90
13172;DHT22;6651;53.200;10.432;2024-03-23T03:03:38;7.20;99.90
13172;DHT22;6651;53.200;10.432;2024-03-23T03:06:04;7.20;99.90
13172;DHT22;6651;53.200;10.432;2024-03-23T03:08:30;7.10;99.90
13172;DHT22;6651;53.200;10.432;2024-03-23T03:10:55;7.10;99.90
13172;DHT22;6651;53.200;10.432;2024-03-23T03:13:21;7.10;99.90
13172;DHT22;6651;53.200;10.432;2024-03-23T03:15:47;7.10;99.90
13172;DHT22;6651;53.200;10.432;2024-03-23T03:18:13;7.10;99.90
13172;DHT22;6651;53.200;10.432;2024-03-23T03:20:39;7.10;99.90
13172;DHT22;6651;53.200;10.432;2024-03-23T03:23:08;7.10;99.90
13172;DHT22;6651;53.200;10.432;2024-03-23T03:25:35;7.10;99.90
13172;DHT22;6651;53.200;10.432;2024-03-23T03:28:01;7.10;99.90
13172;DHT22;6651;53.200;10.432;2024-03-23T03:30:27;7.00;99.90
13172;DHT22;6651;53.200;10.432;2024-03-23T03:32:53;7.00;99.90
13172;DHT22;6651;53.200;10.432;2024-03-23T03:35:19;7.00;99.90
13172;DHT22;6651;53.200;10.432;2024-03-23T03:37:45;7.00;99.90
13172;DHT22;6651;53.200;10.432;2024-03-23T03:40:11;6.90;99.90
13172;DHT22;6651;53.200;10.432;2024-03-23T03:42:37;6.90;99.90
13172;DHT22;6651;53.200;10.432;2024-03-23T03:45:03;7.00;99.90
13172;DHT22;6651;53.200;10.432;2024-03-23T03:47:30;6.90;99.90
13172;DHT22;6651;53.200;10.432;2024-03-23T03:49:55;6.90;99.90
13172;DHT22;6651;53.200;10.432;2024-03-23T03:52:21;6.80;99.90
13172;DHT22;6651;53.200;10.432;2024-03-23T03:54:47;6.80;99.90
13172;DHT22;6651;53.200;10.432;2024-03-23T03:57:12;6.90;99.90
13172;DHT22;6651;53.200;10.432;2024-03-23T03:59:38;6.90;99.90
13172;DHT22;6651;53.200;10.432;2024-03-23T04:02:03;6.90;99.90
13172;DHT22;6651;53.200;10.432;2024-03-23T04:04:29;6.90;99.90
13172;DHT22;6651;53.200;10.432;2024-03-23T04:07:03;6.80;99.90
13172;DHT22;6651;53.200;10.432;2024-03-23T04:09:30;6.80;99.90
13172;DHT22;6651;53.200;10.432;2024-03-23T04:11:56;6.80;99.90
13172;DHT22;6651;53.200;10.432;2024-03-23T04:14:22;6.70;99.90
13172;DHT22;6651;53.200;10.432;2024-03-23T04:16:47;6.80;99.90
13172;DHT22;6651;53.200;10.432;2024-03-23T04:19:13;6.80;99.90
13172;DHT22;6651;53.200;10.432;2024-03-23T04:21:39;6.80;99.90
13172;DHT22;6651;53.200;10.432;2024-03-23T04:24:05;6.80;99.90
13172;DHT22;6651;53.200;10.432;2024-03-23T04:26:43;6.70;99.90
13172;DHT22;6651;53.200;10.432;2024-03-23T04:29:09;6.70;99.90
13172;DHT22;6651;53.200;10.432;2024-03-23T04:31:34;6.70;99.90
13172;DHT22;6651;53.200;10.432;2024-03-23T04:34:03;6.70;99.90
13172;DHT22;6651;53.200;10.432;2024-03-23T04:36:29;6.70;99.90
13172;DHT22;6651;53.200;10.432;2024-03-23T04:38:58;6.70;99.90
13172;DHT22;6651;53.200;10.432;2024-03-23T04:41:23;6.70;99.90
13172;DHT22;6651;53.200;10.432;2024-03-23T04:43:49;6.60;99.90
13172;DHT22;6651;53.200;10.432;2024-03-23T04:46:14;6.60;99.90
13172;DHT22;6651;53.200;10.432;2024-03-23T04:48:41;6.60;99.90
13172;DHT22;6651;53.200;10.432;2024-03-23T04:51:06;6.60;99.90
13172;DHT22;6651;53.200;10.432;2024-03-23T04:53:32;6.60;99.90
13172;DHT22;6651;53.200;10.432;2024-03-23T04:55:58;6.60;99.90
13172;DHT22;6651;53.200;10.432;2024-03-23T04:58:27;6.50;99.90
13172;DHT22;6651;53.200;10.432;2024-03-23T05:00:57;6.50;99.90
13172;DHT22;6651;53.200;10.432;2024-03-23T05:03:23;6.60;99.90
13172;DHT22;6651;53.200;10.432;2024-03-23T05:05:49;6.60;99.90
13172;DHT22;6651;53.200;10.432;2024-03-23T05:08:15;6.60;99.90
13172;DHT22;6651;53.200;10.432;2024-03-23T05:10:42;6.60;99.90
13172;DHT22;6651;53.200;10.432;2024-03-23T05:13:08;6.60;99.90
13172;DHT22;6651;53.200;10.432;2024-03-23T05:15:33;6.70;99.90
13172;DHT22;6651;53.200;10.432;2024-03-23T05:17:59;6.70;99.90
13172;DHT22;6651;53.200;10.432;2024-03-23T05:20:25;6.60;99.90
13172;DHT22;6651;53.200;10.432;2024-03-23T05:22:50;6.60;99.90
13172;DHT22;6651;53.200;10.432;2024-03-23T05:25:16;6.60;99.90
13172;DHT22;6651;53.200;10.432;2024-03-23T05:27:42;6.60;99.90
13172;DHT22;6651;53.200;10.432;2024-03-23T05:30:07;6.50;99.90
13172;DHT22;6651;53.200;10.432;2024-03-23T05:32:34;6.50;99.90
13172;DHT22;6651;53.200;10.432;2024-03-23T05:35:00;6.60;99.90
13172;DHT22;6651;53.200;10.432;2024-03-23T05:37:26;6.60;99.90
13172;DHT22;6651;53.200;10.432;2024-03-23T05:39:52;6.50;99.90
13172;DHT22;6651;53.200;10.432;2024-03-23T05:42:18;6.60;99.90
13172;DHT22;6651;53.200;10.432;2024-03-23T05:44:47;6.60;99.90
13172;DHT22;6651;53.200;10.432;2024-03-23T05:47:13;6.60;99.90
13172;DHT22;6651;53.200;10.432;2024-03-23T05:49:40;6.60;99.90
13172;DHT22;6651;53.200;10.432;2024-03-23T05:52:10;6.60;99.90
13172;DHT22;6651;53.200;10.432;2024-03-23T05:54:36;6.60;99.90
13172;DHT22;6651;53.200;10.432;2024-03-23T05:57:02;6.70;99.90
13172;DHT22;6651;53.200;10.432;2024-03-23T05:59:28;6.70;99.90
13172;DHT22;6651;53.200;10.432;2024-03-23T06:01:54;6.70;99.90
13172;DHT22;6651;53.200;10.432;2024-03-23T06:04:19;6.80;99.90
13172;DHT22;6651;53.200;10.432;2024-03-23T06:06:46;6.80;99.90
13172;DHT22;6651;53.200;10.432;2024-03-23T06:09:12;6.70;99.90
13172;DHT22;6651;53.200;10.432;2024-03-23T06:11:37;6.70;99.90
13172;DHT22;6651;53.200;10.432;2024-03-23T06:14:03;6.70;99.90
13172;DHT22;6651;53.200;10.432;2024-03-23T06:16:29;6.80;99.90
13172;DHT22;6651;53.200;10.432;2024-03-23T06:18:56;6.70;99.90
13172;DHT22;6651;53.200;10.432;2024-03-23T06:21:22;6.60;99.90
13172;DHT22;6651;53.200;10.432;2024-03-23T06:23:51;6.70;99.90
13172;DHT22;6651;53.200;10.432;2024-03-23T06:26:21;6.70;99.90
13172;DHT22;6651;53.200;10.432;2024-03-23T06:28:47;6.70;99.90
13172;DHT22;6651;53.200;10.432;2024-03-23T06:31:13;6.70;99.90
13172;DHT22;6651;53.200;10.432;2024-03-23T06:33:39;6.70;99.90
13172;DHT22;6651;53.200;10.432;2024-03-23T06:36:05;6.70;99.90
13172;DHT22;6651;53.200;10.432;2024-03-23T06:38:31;6.70;99.90
13172;DHT22;6651;53.200;10.432;2024-03-23T06:40:57;6.70;99.90
13172;DHT22;6651;53.200;10.432;2024-03-23T06:43:23;6.70;99.90
13172;DHT22;6651;53.200;10.432;2024-03-23T06:45:55;6.80;99.90
13172;DHT22;6651;53.200;10.432;2024-03-23T06:48:21;6.80;99.90
13172;DHT22;6651;53.200;10.432;2024-03-23T06:50:47;6.90;99.90
13172;DHT22;6651;53.200;10.432;2024-03-23T06:53:13;7.00;99.90
13172;DHT22;6651;53.200;10.432;2024-03-23T06:55:39;6.90;99.90
13172;DHT22;6651;53.200;10.432;2024-03-23T06:58:05;7.00;99.90
13172;DHT22;6651;53.200;10.432;2024-03-23T07:00:31;7.10;99.90
13172;DHT22;6651;53.200;10.432;2024-03-23T07:02:57;7.20;99.90
13172;DHT22;6651;53.200;10.432;2024-03-23T07:05:23;7.30;99.90
13172;DHT22;6651;53.200;10.432;2024-03-23T07:07:49;7.50;99.90
13172;DHT22;6651;53.200;10.432;2024-03-23T07:10:14;7.70;99.90
13172;DHT22;6651;53.200;10.432;2024-03-23T07:12:40;7.90;99.90
13172;DHT22;6651;53.200;10.432;2024-03-23T07:15:06;8.10;99.90
13172;DHT22;6651;53.200;10.432;2024-03-23T07:17:33;8.30;99.90
13172;DHT22;6651;53.200;10.432;2024-03-23T07:20:03;8.40;99.90
13172;DHT22;6651;53.200;10.432;2024-03-23T07:22:32;8.50;99.90
13172;DHT22;6651;53.200;10.432;2024-03-23T07:25:00;8.50;99.90
13172;DHT22;6651;53.200;10.432;2024-03-23T07:27:26;8.50;99.90
13172;DHT22;6651;53.200;10.432;2024-03-23T07:29:52;8.40;99.90
13172;DHT22;6651;53.200;10.432;2024-03-23T07:32:17;8.40;99.90
13172;DHT22;6651;53.200;10.432;2024-03-23T07:34:43;8.40;99.90
13172;DHT22;6651;53.200;10.432;2024-03-23T07:37:10;8.40;99.90
13172;DHT22;6651;53.200;10.432;2024-03-23T07:39:35;8.50;99.90
13172;DHT22;6651;53.200;10.432;2024-03-23T07:42:02;8.50;99.90
13172;DHT22;6651;53.200;10.432;2024-03-23T07:44:27;8.60;99.90
13172;DHT22;6651;53.200;10.432;2024-03-23T07:46:53;8.70;99.90
13172;DHT22;6651;53.200;10.432;2024-03-23T07:49:19;8.70;99.90
13172;DHT22;6651;53.200;10.432;2024-03-23T07:51:44;8.80;99.90
13172;DHT22;6651;53.200;10.432;2024-03-23T07:54:10;9.00;99.90
13172;DHT22;6651;53.200;10.432;2024-03-23T07:56:36;9.20;99.90
13172;DHT22;6651;53.200;10.432;2024-03-23T07:59:01;9.30;99.90
13172;DHT22;6651;53.200;10.432;2024-03-23T08:01:29;9.30;99.90
13172;DHT22;6651;53.200;10.432;2024-03-23T08:03:54;9.20;99.90
13172;DHT22;6651;53.200;10.432;2024-03-23T08:06:20;9.30;99.90
13172;DHT22;6651;53.200;10.432;2024-03-23T08:08:50;9.40;99.90
13172;DHT22;6651;53.200;10.432;2024-03-23T08:11:17;9.60;99.90
13172;DHT22;6651;53.200;10.432;2024-03-23T08:13:45;9.80;99.90
13172;DHT22;6651;53.200;10.432;2024-03-23T08:16:10;9.90;99.90
13172;DHT22;6651;53.200;10.432;2024-03-23T08:18:36;10.00;99.90
13172;DHT22;6651;53.200;10.432;2024-03-23T08:21:04;10.20;99.90
13172;DHT22;6651;53.200;10.432;2024-03-23T08:23:36;10.30;99.90
13172;DHT22;6651;53.200;10.432;2024-03-23T08:26:07;10.50;99.90
13172;DHT22;6651;53.200;10.432;2024-03-23T08:28:34;10.50;99.90
13172;DHT22;6651;53.200;10.432;2024-03-23T08:31:02;10.70;99.90
13172;DHT22;6651;53.200;10.432;2024-03-23T08:33:28;10.70;99.90
13172;DHT22;6651;53.200;10.432;2024-03-23T08:36:02;10.90;99.90
13172;DHT22;6651;53.200;10.432;2024-03-23T08:38:28;11.20;99.90
13172;DHT22;6651;53.200;10.432;2024-03-23T08:40:58;11.30;99.90
13172;DHT22;6651;53.200;10.432;2024-03-23T08:43:24;11.40;99.90
13172;DHT22;6651;53.200;10.432;2024-03-23T08:45:50;11.40;99.90
13172;DHT22;6651;53.200;10.432;2024-03-23T08:48:16;11.60;99.90
13172;DHT22;6651;53.200;10.432;2024-03-23T08:50:41;11.70;99.90
13172;DHT22;6651;53.200;10.432;2024-03-23T08:53:08;11.80;99.90
13172;DHT22;6651;53.200;10.432;2024-03-23T08:55:33;11.90;99.90
13172;DHT22;6651;53.200;10.432;2024-03-23T08:57:59;12.20;99.90
13172;DHT22;6651;53.200;10.432;2024-03-23T09:00:25;12.30;99.90
13172;DHT22;6651;53.200;10.432;2024-03-23T09:02:51;12.20;99.90
13172;DHT22;6651;53.200;10.432;2024-03-23T09:05:17;12.10;99.90
13172;DHT22;6651;53.200;10.432;2024-03-23T09:07:42;12.20;99.90
13172;DHT22;6651;53.200;10.432;2024-03-23T09:10:08;12.30;99.90
13172;DHT22;6651;53.200;10.432;2024-03-23T09:12:34;12.40;99.90
13172;DHT22;6651;53.200;10.432;2024-03-23T09:14:59;12.40;99.90
13172;DHT22;6651;53.200;10.432;2024-03-23T09:17:25;12.30;99.90
13172;DHT22;6651;53.200;10.432;2024-03-23T09:19:51;12.10;99.90
13172;DHT22;6651;53.200;10.432;2024-03-23T09:22:16;12.30;99.90
13172;DHT22;6651;53.200;10.432;2024-03-23T09:24:42;12.40;99.90
13172;DHT22;6651;53.200;10.432;2024-03-23T09:27:07;12.40;99.90
13172;DHT22;6651;53.200;10.432;2024-03-23T09:29:33;12.40;99.90
13172;DHT22;6651;53.200;10.432;2024-03-23T09:31:59;12.30;99.90
13172;DHT22;6651;53.200;10.432;2024-03-23T09:34:24;12.10;99.90
13172;DHT22;6651;53.200;10.432;2024-03-23T09:36:53;11.80;99.90
13172;DHT22;6651;53.200;10.432;2024-03-23T09:39:19;12.00;99.90
13172;DHT22;6651;53.200;10.432;2024-03-23T09:41:45;12.50;99.90
13172;DHT22;6651;53.200;10.432;2024-03-23T09:44:11;12.90;99.90
13172;DHT22;6651;53.200;10.432;2024-03-23T09:46:37;13.30;99.90
13172;DHT22;6651;53.200;10.432;2024-03-23T09:49:06;13.30;99.90
13172;DHT22;6651;53.200;10.432;2024-03-23T09:51:35;12.90;99.90
13172;DHT22;6651;53.200;10.432;2024-03-23T09:54:01;12.30;99.90
13172;DHT22;6651;53.200;10.432;2024-03-23T09:56:27;11.90;99.90
13172;DHT22;6651;53.200;10.432;2024-03-23T09:59:00;11.60;99.90
13172;DHT22;6651;53.200;10.432;2024-03-23T10:01:26;11.40;99.90
13172;DHT22;6651;53.200;10.432;2024-03-23T10:03:52;11.40;99.90
13172;DHT22;6651;53.200;10.432;2024-03-23T10:06:21;11.30;99.90
13172;DHT22;6651;53.200;10.432;2024-03-23T10:08:47;11.30;99.90
13172;DHT22;6651;53.200;10.432;2024-03-23T10:11:15;11.10;99.90
13172;DHT22;6651;53.200;10.432;2024-03-23T10:13:44;11.00;99.90
13172;DHT22;6651;53.200;10.432;2024-03-23T10:16:12;10.90;99.90
13172;DHT22;6651;53.200;10.432;2024-03-23T10:18:39;10.90;99.90
13172;DHT22;6651;53.200;10.432;2024-03-23T10:21:09;10.80;99.90
13172;DHT22;6651;53.200;10.432;2024-03-23T10:23:37;10.60;99.90
13172;DHT22;6651;53.200;10.432;2024-03-23T10:29:00;10.50;99.90
13172;DHT22;6651;53.200;10.432;2024-03-23T10:31:30;10.90;99.90
13172;DHT22;6651;53.200;10.432;2024-03-23T10:33:57;11.60;99.90
13172;DHT22;6651;53.200;10.432;2024-03-23T10:36:24;11.90;99.90
13172;DHT22;6651;53.200;10.432;2024-03-23T10:38:50;11.90;99.90
13172;DHT22;6651;53.200;10.432;2024-03-23T10:41:17;12.20;99.90
13172;DHT22;6651;53.200;10.432;2024-03-23T10:43:45;12.60;99.90
13172;DHT22;6651;53.200;10.432;2024-03-23T10:46:12;13.00;99.90
13172;DHT22;6651;53.200;10.432;2024-03-23T10:48:37;13.30;99.90
13172;DHT22;6651;53.200;10.432;2024-03-23T10:51:04;13.40;99.90
13172;DHT22;6651;53.200;10.432;2024-03-23T10:53:33;13.50;99.90
13172;DHT22;6651;53.200;10.432;2024-03-23T10:55:59;13.60;99.90
13172;DHT22;6651;53.200;10.432;2024-03-23T10:58:48;13.70;99.90
13172;DHT22;6651;53.200;10.432;2024-03-23T11:01:15;13.50;99.90
13172;DHT22;6651;53.200;10.432;2024-03-23T11:03:52;13.10;99.90
13172;DHT22;6651;53.200;10.432;2024-03-23T11:06:37;13.20;99.90
13172;DHT22;6651;53.200;10.432;2024-03-23T11:09:03;13.60;99.90
13172;DHT22;6651;53.200;10.432;2024-03-23T11:11:29;13.70;99.90
13172;DHT22;6651;53.200;10.432;2024-03-23T11:13:58;13.60;99.90
13172;DHT22;6651;53.200;10.432;2024-03-23T11:16:29;13.30;99.90
13172;DHT22;6651;53.200;10.432;2024-03-23T11:19:34;13.00;99.90
13172;DHT22;6651;53.200;10.432;2024-03-23T11:22:02;13.00;99.90
13172;DHT22;6651;53.200;10.432;2024-03-23T11:24:27;12.50;99.90
13172;DHT22;6651;53.200;10.432;2024-03-23T11:26:53;12.40;99.90
13172;DHT22;6651;53.200;10.432;2024-03-23T11:29:19;12.80;99.90
13172;DHT22;6651;53.200;10.432;2024-03-23T11:31:51;13.10;99.90
13172;DHT22;6651;53.200;10.432;2024-03-23T11:34:18;13.30;99.90
13172;DHT22;6651;53.200;10.432;2024-03-23T11:36:44;13.10;99.90
13172;DHT22;6651;53.200;10.432;2024-03-23T11:39:14;12.80;99.90
13172;DHT22;6651;53.200;10.432;2024-03-23T11:41:50;12.50;99.90
13172;DHT22;6651;53.200;10.432;2024-03-23T11:44:24;12.40;99.90
13172;DHT22;6651;53.200;10.432;2024-03-23T11:46:50;12.20;99.90
13172;DHT22;6651;53.200;10.432;2024-03-23T11:49:22;12.00;99.90
13172;DHT22;6651;53.200;10.432;2024-03-23T11:51:48;11.70;99.90
13172;DHT22;6651;53.200;10.432;2024-03-23T11:54:14;11.40;99.90
13172;DHT22;6651;53.200;10.432;2024-03-23T11:56:40;11.00;99.90
13172;DHT22;6651;53.200;10.432;2024-03-23T11:59:06;10.90;99.90
13172;DHT22;6651;53.200;10.432;2024-03-23T12:01:32;10.70;99.90
13172;DHT22;6651;53.200;10.432;2024-03-23T12:03:58;10.50;99.90
13172;DHT22;6651;53.200;10.432;2024-03-23T12:06:24;10.30;99.90
13172;DHT22;6651;53.200;10.432;2024-03-23T12:08:49;10.70;99.90
13172;DHT22;6651;53.200;10.432;2024-03-23T12:11:16;11.20;99.90
13172;DHT22;6651;53.200;10.432;2024-03-23T12:13:44;11.70;99.90
13172;DHT22;6651;53.200;10.432;2024-03-23T12:16:20;12.10;99.90
13172;DHT22;6651;53.200;10.432;2024-03-23T12:18:47;12.10;99.90
13172;DHT22;6651;53.200;10.432;2024-03-23T12:21:14;12.00;99.90
13172;DHT22;6651;53.200;10.432;2024-03-23T12:23:40;12.00;99.90
13172;DHT22;6651;53.200;10.432;2024-03-23T12:26:06;11.90;99.90
13172;DHT22;6651;53.200;10.432;2024-03-23T12:28:32;11.80;99.90
13172;DHT22;6651;53.200;10.432;2024-03-23T12:30:58;11.70;99.90
13172;DHT22;6651;53.200;10.432;2024-03-23T12:33:24;11.60;99.90
13172;DHT22;6651;53.200;10.432;2024-03-23T12:35:50;11.40;99.90
13172;DHT22;6651;53.200;10.432;2024-03-23T12:38:16;11.40;99.90
13172;DHT22;6651;53.200;10.432;2024-03-23T12:40:46;11.40;99.90
13172;DHT22;6651;53.200;10.432;2024-03-23T12:43:13;11.50;99.90
13172;DHT22;6651;53.200;10.432;2024-03-23T12:45:39;11.80;99.90
13172;DHT22;6651;53.200;10.432;2024-03-23T12:48:05;12.10;99.90
13172;DHT22;6651;53.200;10.432;2024-03-23T12:50:30;12.40;99.90
13172;DHT22;6651;53.200;10.432;2024-03-23T12:52:56;12.60;99.90
13172;DHT22;6651;53.200;10.432;2024-03-23T12:55:21;12.60;99.90
13172;DHT22;6651;53.200;10.432;2024-03-23T12:57:47;12.40;99.90
13172;DHT22;6651;53.200;10.432;2024-03-23T13:00:13;12.30;99.90
13172;DHT22;6651;53.200;10.432;2024-03-23T13:02:41;12.20;99.90
13172;DHT22;6651;53.200;10.432;2024-03-23T13:05:07;12.00;99.90
13172;DHT22;6651;53.200;10.432;2024-03-23T13:07:34;12.20;99.90
13172;DHT22;6651;53.200;10.432;2024-03-23T13:10:00;12.40;99.90
13172;DHT22;6651;53.200;10.432;2024-03-23T13:12:26;12.40;99.90
13172;DHT22;6651;53.200;10.432;2024-03-23T13:14:52;12.50;99.90
13172;DHT22;6651;53.200;10.432;2024-03-23T13:17:17;12.40;99.90
13172;DHT22;6651;53.200;10.432;2024-03-23T13:19:43;12.30;99.90
13172;DHT22;6651;53.200;10.432;2024-03-23T13:22:09;12.20;99.90
13172;DHT22;6651;53.200;10.432;2024-03-23T13:24:37;11.90;99.90
13172;DHT22;6651;53.200;10.432;2024-03-23T13:27:03;11.70;99.90
13172;DHT22;6651;53.200;10.432;2024-03-23T13:29:30;11.20;99.90
13172;DHT22;6651;53.200;10.432;2024-03-23T13:31:56;10.10;99.90
13172;DHT22;6651;53.200;10.432;2024-03-23T13:34:22;9.30;99.90
13172;DHT22;6651;53.200;10.432;2024-03-23T13:36:47;8.90;99.90
13172;DHT22;6651;53.200;10.432;2024-03-23T13:39:14;8.70;99.90
13172;DHT22;6651;53.200;10.432;2024-03-23T13:41:42;8.40;99.90
13172;DHT22;6651;53.200;10.432;2024-03-23T13:44:09;8.20;99.90
13172;DHT22;6651;53.200;10.432;2024-03-23T13:46:39;8.10;99.90
13172;DHT22;6651;53.200;10.432;2024-03-23T13:49:05;8.20;99.90
13172;DHT22;6651;53.200;10.432;2024-03-23T13:51:32;8.20;99.90
13172;DHT22;6651;53.200;10.432;2024-03-23T13:53:57;8.10;99.90
13172;DHT22;6651;53.200;10.432;2024-03-23T13:56:29;8.20;99.90
13172;DHT22;6651;53.200;10.432;2024-03-23T13:58:57;8.20;99.90
13172;DHT22;6651;53.200;10.432;2024-03-23T14:01:23;8.10;99.90
13172;DHT22;6651;53.200;10.432;2024-03-23T14:03:50;8.00;99.90
13172;DHT22;6651;53.200;10.432;2024-03-23T14:06:15;7.70;99.90
13172;DHT22;6651;53.200;10.432;2024-03-23T14:08:41;7.40;99.90
13172;DHT22;6651;53.200;10.432;2024-03-23T14:11:09;7.10;99.90
13172;DHT22;6651;53.200;10.432;2024-03-23T14:13:35;6.70;99.90
13172;DHT22;6651;53.200;10.432;2024-03-23T14:16:01;6.70;99.90
13172;DHT22;6651;53.200;10.432;2024-03-23T14:18:27;6.70;99.90
13172;DHT22;6651;53.200;10.432;2024-03-23T14:20:56;6.60;99.90
13172;DHT22;6651;53.200;10.432;2024-03-23T14:23:27;6.60;99.90
13172;DHT22;6651;53.200;10.432;2024-03-23T14:25:54;6.50;99.90
13172;DHT22;6651;53.200;10.432;2024-03-23T14:28:20;6.40;99.90
13172;DHT22;6651;53.200;10.432;2024-03-23T14:30:47;6.30;99.90
13172;DHT22;6651;53.200;10.432;2024-03-23T14:33:12;6.30;99.90
13172;DHT22;6651;53.200;10.432;2024-03-23T14:35:38;6.20;99.90
13172;DHT22;6651;53.200;10.432;2024-03-23T14:38:05;6.30;99.90
13172;DHT22;6651;53.200;10.432;2024-03-23T14:40:30;6.40;99.90
13172;DHT22;6651;53.200;10.432;2024-03-23T14:42:56;6.60;99.90
13172;DHT22;6651;53.200;10.432;2024-03-23T14:45:22;6.80;99.90
13172;DHT22;6651;53.200;10.432;2024-03-23T14:47:49;6.90;99.90
13172;DHT22;6651;53.200;10.432;2024-03-23T14:50:14;7.00;99.90
13172;DHT22;6651;53.200;10.432;2024-03-23T14:52:44;7.10;99.90
13172;DHT22;6651;53.200;10.432;2024-03-23T14:55:09;7.30;99.90
13172;DHT22;6651;53.200;10.432;2024-03-23T14:57:35;7.40;99.90
13172;DHT22;6651;53.200;10.432;2024-03-23T15:00:01;7.70;99.90
13172;DHT22;6651;53.200;10.432;2024-03-23T15:02:28;7.90;99.90
13172;DHT22;6651;53.200;10.432;2024-03-23T15:04:55;8.10;99.90
13172;DHT22;6651;53.200;10.432;2024-03-23T15:07:21;8.10;99.90
13172;DHT22;6651;53.200;10.432;2024-03-23T15:09:46;8.10;99.90
13172;DHT22;6651;53.200;10.432;2024-03-23T15:12:12;8.10;99.90
13172;DHT22;6651;53.200;10.432;2024-03-23T15:14:38;8.10;99.90
13172;DHT22;6651;53.200;10.432;2024-03-23T15:17:03;8.10;99.90
13172;DHT22;6651;53.200;10.432;2024-03-23T15:19:32;8.20;99.90
13172;DHT22;6651;53.200;10.432;2024-03-23T15:21:58;8.20;99.90
13172;DHT22;6651;53.200;10.432;2024-03-23T15:24:24;8.30;99.90
13172;DHT22;6651;53.200;10.432;2024-03-23T15:26:50;8.40;99.90
13172;DHT22;6651;53.200;10.432;2024-03-23T15:29:17;8.40;99.90
13172;DHT22;6651;53.200;10.432;2024-03-23T15:31:43;8.50;99.90
13172;DHT22;6651;53.200;10.432;2024-03-23T15:34:10;8.40;99.90
13172;DHT22;6651;53.200;10.432;2024-03-23T15:36:39;8.40;99.90
13172;DHT22;6651;53.200;10.432;2024-03-23T15:39:05;8.50;99.90
13172;DHT22;6651;53.200;10.432;2024-03-23T15:41:31;8.50;99.90
13172;DHT22;6651;53.200;10.432;2024-03-23T15:43:59;8.50;99.90
13172;DHT22;6651;53.200;10.432;2024-03-23T15:46:25;8.50;99.90
13172;DHT22;6651;53.200;10.432;2024-03-23T15:48:50;8.30;99.90
13172;DHT22;6651;53.200;10.432;2024-03-23T15:51:16;8.10;99.90
13172;DHT22;6651;53.200;10.432;2024-03-23T15:53:43;8.10;99.90
13172;DHT22;6651;53.200;10.432;2024-03-23T15:56:09;8.00;99.90
13172;DHT22;6651;53.200;10.432;2024-03-23T15:58:35;7.90;99.90
13172;DHT22;6651;53.200;10.432;2024-03-23T16:01:06;7.90;99.90
13172;DHT22;6651;53.200;10.432;2024-03-23T16:03:38;7.90;99.90
13172;DHT22;6651;53.200;10.432;2024-03-23T16:06:06;8.00;99.90
13172;DHT22;6651;53.200;10.432;2024-03-23T16:08:33;8.10;99.90
13172;DHT22;6651;53.200;10.432;2024-03-23T16:11:06;8.20;99.90
13172;DHT22;6651;53.200;10.432;2024-03-23T16:13:32;8.20;99.90
13172;DHT22;6651;53.200;10.432;2024-03-23T16:15:59;8.30;99.90
13172;DHT22;6651;53.200;10.432;2024-03-23T16:18:25;8.20;99.90
13172;DHT22;6651;53.200;10.432;2024-03-23T16:20:56;8.20;99.90
13172;DHT22;6651;53.200;10.432;2024-03-23T16:23:22;8.10;99.90
13172;DHT22;6651;53.200;10.432;2024-03-23T16:25:52;8.10;99.90
13172;DHT22;6651;53.200;10.432;2024-03-23T16:28:32;8.10;99.90
13172;DHT22;6651;53.200;10.432;2024-03-23T16:31:04;8.10;99.90